YM Uniformity — BLHQ — position and weather

sailwx.info

Track history (hours):
 
Tides and Currents Weather Stations Pressure Air Temp Water Temp Dewpoint Dewpoint Depression Visibility Wind Speed Wind Dir Waves Ship Positions

YM Uniformity

Last reported at 2018-Jul-20 18:30 UTC. Time now 2018-Jul-22 10:28 UTC.
Position N 09°11' W 079°52'.

Length 333 m; draft 11.3 m.

Type: Cargo ship. MMSI: 416468000.

Date/timePositionNaut miles runAvg speedWind from/ knotsBaromVisibWave heightAir tempDewpointWater temp
2018-Jul-20 18:30N 09°11' W 079°52'4 8.2
2018-Jul-20 17:59N 09°13' W 079°56'0 0.7
2018-Jul-20 17:25N 09°13' W 079°56'0 0.0
2018-Jul-20 16:55N 09°13' W 079°56'0 0.1
2018-Jul-20 16:28N 09°13' W 079°56'0 0.1
2018-Jul-20 15:58N 09°13' W 079°56'0 0.0
2018-Jul-20 15:16N 09°13' W 079°56'0 0.1
2018-Jul-20 14:52N 09°13' W 079°56'0 0.0
2018-Jul-20 14:16N 09°13' W 079°56'0 0.6
2018-Jul-20 13:59N 09°13' W 079°56'3 3.5
2018-Jul-20 13:08N 09°15' W 079°55'0 3.2
2018-Jul-20 13:00N 09°16' W 079°55'0 0.5
2018-Jul-20 12:24N 09°16' W 079°55'0 0.5
2018-Jul-20 12:00N 09°16' W 079°55'0 0.5
2018-Jul-20 11:30N 09°17' W 079°55'0 0.2
2018-Jul-20 11:00N 09°17' W 079°55'0 0.8
2018-Jul-20 10:30N 09°17' W 079°55'1 2.2
2018-Jul-20 10:00N 09°18' W 079°55'2 4.1
2018-Jul-20 09:30N 09°20' W 079°55'3 5.4
2018-Jul-20 09:00N 09°23' W 079°55'3 5.5
2018-Jul-20 08:31N 09°26' W 079°55'2 3.3
2018-Jul-20 07:59N 09°26' W 079°53'0 0.7
2018-Jul-20 07:30N 09°26' W 079°53'0 0.1
2018-Jul-20 07:00N 09°26' W 079°53'0 0.0
2018-Jul-20 06:06N 09°26' W 079°53'0 0.1
2018-Jul-20 05:57N 09°26' W 079°53'0 0.0
2018-Jul-20 05:27N 09°26' W 079°53'0 0.0
2018-Jul-20 05:00N 09°26' W 079°53'0 0.0
2018-Jul-20 04:27N 09°26' W 079°53'0 0.0
2018-Jul-20 03:57N 09°26' W 079°53'0 0.0
2018-Jul-20 03:27N 09°26' W 079°53'0 0.0
2018-Jul-20 02:48N 09°26' W 079°53'0 0.0
2018-Jul-20 02:30N 09°26' W 079°53'0 0.0
2018-Jul-20 01:45N 09°26' W 079°53'0 0.0
2018-Jul-20 01:24N 09°26' W 079°53'0 0.0
2018-Jul-20 00:51N 09°26' W 079°53'0 0.0
2018-Jul-20 00:21N 09°26' W 079°53'0 0.2
2018-Jul-19 23:18N 09°26' W 079°53'1 4.0
2018-Jul-19 23:00N 09°25' W 079°53'3 6.6
2018-Jul-19 22:31N 09°22' W 079°53'0 0.4
2018-Jul-19 22:00N 09°22' W 079°53'0 0.0
2018-Jul-19 21:30N 09°22' W 079°53'0 0.0
2018-Jul-19 21:00N 09°22' W 079°53'0 0.0
2018-Jul-19 20:30N 09°22' W 079°53'0 0.0
2018-Jul-19 20:00N 09°22' W 079°53'0 0.0
2018-Jul-19 19:30N 09°22' W 079°53'0 0.0
2018-Jul-19 19:00N 09°22' W 079°53'0 0.0
2018-Jul-19 18:30N 09°22' W 079°53'0 0.0
2018-Jul-19 18:00N 09°22' W 079°53'0 0.0
2018-Jul-19 17:30N 09°22' W 079°53'0 0.0
2018-Jul-19 17:00N 09°22' W 079°53'0 0.0
2018-Jul-19 16:30N 09°22' W 079°53'0 0.0
2018-Jul-19 16:00N 09°22' W 079°53'0 0.0
2018-Jul-19 15:30N 09°22' W 079°53'0 0.0
2018-Jul-19 15:00N 09°22' W 079°53'0 0.0
2018-Jul-19 14:30N 09°22' W 079°53'0 0.1
2018-Jul-19 13:30N 09°22' W 079°53'1 1.8
2018-Jul-19 13:00N 09°23' W 079°54'3 6.1
2018-Jul-19 12:30N 09°26' W 079°54'713.7
2018-Jul-19 12:00N 09°32' W 079°53'611.2
2018-Jul-19 11:26N 09°39' W 079°52'  
2018-Jul-15 13:29N 32°43' W 079°48'611.5
2018-Jul-15 12:58N 32°46' W 079°53'3 6.5
2018-Jul-15 12:30N 32°49' W 079°54'1 1.8
2018-Jul-15 12:01N 32°50' W 079°54'0 0.0
2018-Jul-15 11:30N 32°50' W 079°54'0 0.0
2018-Jul-15 10:57N 32°50' W 079°54'0 0.0
2018-Jul-15 10:30N 32°50' W 079°54'0 0.0
2018-Jul-15 09:57N 32°50' W 079°54'0 0.0
2018-Jul-15 09:30N 32°50' W 079°54'0 0.0
2018-Jul-15 09:00N 32°50' W 079°54'0 0.0
2018-Jul-15 08:27N 32°50' W 079°54'0 0.0
2018-Jul-15 08:00N 32°50' W 079°54'0 0.0
2018-Jul-15 07:30N 32°50' W 079°54'0 0.0
2018-Jul-15 07:00N 32°50' W 079°54'0 0.0
2018-Jul-15 06:30N 32°50' W 079°54'0 0.0
2018-Jul-15 06:00N 32°50' W 079°54'0 0.0
2018-Jul-15 05:30N 32°50' W 079°54'0 0.0
2018-Jul-15 05:00N 32°50' W 079°54'0 0.0
2018-Jul-15 04:21N 32°50' W 079°54'0 0.0
2018-Jul-15 04:00N 32°50' W 079°54'0 0.0
2018-Jul-15 01:10N 32°50' W 079°54'0 0.0
2018-Jul-15 01:00N 32°50' W 079°54'0 0.8
2018-Jul-15 00:30N 32°50' W 079°54'3 5.5
2018-Jul-15 00:00N 32°47' W 079°54'3 6.7
2018-Jul-14 23:30N 32°45' W 079°51'4 7.3
2018-Jul-14 22:54N 32°42' W 079°47'6 8.8
2018-Jul-14 22:14N 32°40' W 079°41'46 2.7
2018-Jul-14 05:06N 31°60' W 080°07'4 8.9
2018-Jul-14 04:39N 31°58' W 080°12'1 9.5
2018-Jul-14 04:30N 31°58' W 080°13'9 9.5
2018-Jul-14 03:36N 31°57' W 080°23'2 9.6
2018-Jul-14 03:23N 31°57' W 080°26'4 9.7
2018-Jul-14 03:00N 31°57' W 080°30'5 9.6
2018-Jul-14 02:30N 31°56' W 080°36'4 8.9
2018-Jul-14 02:00N 31°57' W 080°41'4 8.8
2018-Jul-14 01:30N 31°59' W 080°46'713.6
2018-Jul-14 01:00N 32°02' W 080°53'5 9.7
2018-Jul-14 00:30N 32°04' W 080°58'4 8.0
2018-Jul-14 00:00N 32°05' W 081°03'3 5.5
2018-Jul-13 23:30N 32°05' W 081°06'2 3.8
2018-Jul-13 23:00N 32°07' W 081°07'2 3.1
2018-Jul-13 22:30N 32°08' W 081°08'0 0.2
2018-Jul-13 21:58N 32°08' W 081°08'0 0.0
2018-Jul-13 21:28N 32°08' W 081°08'0 0.0
2018-Jul-13 20:58N 32°08' W 081°08'0 0.0
2018-Jul-13 20:28N 32°08' W 081°08'0 0.0
2018-Jul-13 19:58N 32°08' W 081°08'0 0.0
2018-Jul-13 19:28N 32°08' W 081°08'0 0.0
2018-Jul-13 18:52N 32°08' W 081°08'0 0.0
2018-Jul-13 18:28N 32°08' W 081°08'0 0.0
2018-Jul-13 17:58N 32°08' W 081°08'0 0.0
2018-Jul-13 17:28N 32°08' W 081°08'0 0.0
2018-Jul-13 16:52N 32°08' W 081°08'0 0.0
2018-Jul-13 16:28N 32°08' W 081°08'0 0.0
2018-Jul-13 15:58N 32°08' W 081°08'0 0.0
2018-Jul-13 15:16N 32°08' W 081°08'0 0.0
2018-Jul-13 14:52N 32°08' W 081°08'0 0.0
2018-Jul-13 13:52N 32°08' W 081°08'0 0.0
2018-Jul-13 13:28N 32°08' W 081°08'0 0.0
2018-Jul-13 12:58N 32°08' W 081°08'0 0.0
2018-Jul-13 12:28N 32°08' W 081°08'0 0.0
2018-Jul-13 11:58N 32°08' W 081°08'0 0.0
2018-Jul-13 11:28N 32°08' W 081°08'0 0.0
2018-Jul-13 10:52N 32°08' W 081°08'0 0.0
2018-Jul-13 10:28N 32°08' W 081°08'0 0.0
2018-Jul-13 09:52N 32°08' W 081°08'0 0.0
2018-Jul-13 09:28N 32°08' W 081°08'0 0.0
2018-Jul-13 08:58N 32°08' W 081°08'0 0.0
2018-Jul-13 08:28N 32°08' W 081°08'0 0.0
2018-Jul-13 07:58N 32°08' W 081°08'0 0.0
2018-Jul-13 07:28N 32°08' W 081°08'0 0.0
2018-Jul-13 06:58N 32°08' W 081°08'0 0.0
2018-Jul-13 06:28N 32°08' W 081°08'0 0.0
2018-Jul-13 05:58N 32°08' W 081°08'0 0.0
2018-Jul-13 05:28N 32°08' W 081°08'0 0.0
2018-Jul-13 04:58N 32°08' W 081°08'0 0.0
2018-Jul-13 04:28N 32°08' W 081°08'0 0.0
2018-Jul-13 03:58N 32°08' W 081°08'0 0.0
2018-Jul-13 03:28N 32°08' W 081°08'0 0.0
2018-Jul-13 02:58N 32°08' W 081°08'0 0.0
2018-Jul-13 02:28N 32°08' W 081°08'0 0.0
2018-Jul-13 01:58N 32°08' W 081°08'0 0.0
2018-Jul-13 01:28N 32°08' W 081°08'0 0.0
2018-Jul-13 00:58N 32°08' W 081°08'0 0.0
2018-Jul-13 00:28N 32°08' W 081°08'0 0.0
2018-Jul-12 23:58N 32°08' W 081°08'0 0.0
2018-Jul-12 23:28N 32°08' W 081°08'0 0.0
2018-Jul-12 22:58N 32°08' W 081°08'0 0.0
2018-Jul-12 22:22N 32°08' W 081°08'0 0.0
2018-Jul-12 21:58N 32°08' W 081°08'0 0.0
2018-Jul-12 21:28N 32°08' W 081°08'0 0.0
2018-Jul-12 20:58N 32°08' W 081°08'0 0.0
2018-Jul-12 20:28N 32°08' W 081°08'0 0.0
2018-Jul-12 19:58N 32°08' W 081°08'0 0.0
2018-Jul-12 19:28N 32°08' W 081°08'0 0.0
2018-Jul-12 18:58N 32°08' W 081°08'0 0.0
2018-Jul-12 18:28N 32°08' W 081°08'0 0.0
2018-Jul-12 17:52N 32°08' W 081°08'0 0.0
2018-Jul-12 17:28N 32°08' W 081°08'0 0.0
2018-Jul-12 16:58N 32°08' W 081°08'0 0.0
2018-Jul-12 16:28N 32°08' W 081°08'0 0.0
2018-Jul-12 15:53N 32°08' W 081°08'0 0.0
2018-Jul-12 15:29N 32°08' W 081°08'0 0.0
2018-Jul-12 14:59N 32°08' W 081°08'0 0.2
2018-Jul-12 14:30N 32°08' W 081°08'2 4.1
2018-Jul-12 14:00N 32°06' W 081°07'2 4.7
2018-Jul-12 13:30N 32°05' W 081°05'3 5.4
2018-Jul-12 13:00N 32°05' W 081°02'510.1
2018-Jul-12 12:30N 32°03' W 080°56'612.3
2018-Jul-12 12:01N 32°02' W 080°49'714.8
2018-Jul-12 11:31N 31°58' W 080°42'510.8
2018-Jul-12 11:00N 31°56' W 080°36'611.8
2018-Jul-12 10:28N 31°57' W 080°28'0 0.1
2018-Jul-12 04:30N 31°57' W 080°28'0 0.1
2018-Jul-12 03:18N 31°57' W 080°28'0 0.0
2018-Jul-12 03:00N 31°57' W 080°28'0 0.0
2018-Jul-12 02:30N 31°57' W 080°28'0 0.1
2018-Jul-12 01:12N 31°57' W 080°28'0 0.2
2018-Jul-12 01:00N 31°57' W 080°28'2 3.2
2018-Jul-12 00:30N 31°58' W 080°26'612.4
2018-Jul-12 00:00N 31°57' W 080°19'612.6
2018-Jul-11 23:30N 31°58' W 080°11'612.3
2018-Jul-11 23:00N 32°01' W 080°05'612.7
2018-Jul-11 22:30N 32°04' W 079°58'612.8
2018-Jul-11 22:00N 32°07' W 079°52'712.9
2018-Jul-11 21:30N 32°10' W 079°45'613.0
2018-Jul-11 21:00N 32°14' W 079°39'713.2
2018-Jul-11 20:30N 32°17' W 079°32'713.5
2018-Jul-11 19:59N 32°20' W 079°25'713.5
2018-Jul-11 19:28N 32°24' W 079°18'613.0
2018-Jul-11 19:00N 32°28' W 079°13'713.1
2018-Jul-11 18:30N 32°34' W 079°08'713.2
2018-Jul-11 18:00N 32°39' W 079°04'713.3
2018-Jul-11 17:30N 32°45' W 078°59'713.3
2018-Jul-11 17:00N 32°50' W 078°55'713.2
2018-Jul-11 16:30N 32°55' W 078°50'713.2
2018-Jul-11 16:00N 33°01' W 078°45'1613.3
2018-Jul-11 14:49N 33°13' W 078°34'413.3
2018-Jul-11 14:30N 33°17' W 078°32'4012.5
2018-Jul-11 11:21N 33°48' W 078°02'511.9
2018-Jul-11 10:57N 33°52' W 078°01'3 7.2
2018-Jul-11 10:30N 33°56' W 077°60'510.2
2018-Jul-11 10:00N 33°60' W 077°57'5 9.6
2018-Jul-11 09:30N 34°05' W 077°56'6 8.9
2018-Jul-11 08:48N 34°11' W 077°57'1 0.1
2018-Jul-10 23:52N 34°12' W 077°57'0 0.0
2018-Jul-10 23:28N 34°12' W 077°57'0 0.0
2018-Jul-10 22:40N 34°12' W 077°57'0 0.0
2018-Jul-10 22:28N 34°12' W 077°57'0 0.0
2018-Jul-10 20:01N 34°12' W 077°57'0 0.0
2018-Jul-10 19:58N 34°12' W 077°57'  
Track history (hours):
 
Tides and Currents Weather Stations Pressure Air Temp Water Temp Dewpoint Dewpoint Depression Visibility Wind Speed Wind Dir Waves Ship Positions

YM Uniformity

Last reported at 2018-Jul-20 18:30 UTC. Time now 2018-Jul-22 10:28 UTC.
Position N 09°11' W 079°52'.

Length 333 m; draft 11.3 m.

Type: Cargo ship. MMSI: 416468000.

Date/timePositionNaut miles runAvg speedWind from/ knotsBaromVisibWave heightAir tempDewpointWater temp
2018-Jul-20 18:30N 09°11' W 079°52'4 8.2
2018-Jul-20 17:59N 09°13' W 079°56'0 0.7
2018-Jul-20 17:25N 09°13' W 079°56'0 0.0
2018-Jul-20 16:55N 09°13' W 079°56'0 0.1
2018-Jul-20 16:28N 09°13' W 079°56'0 0.1
2018-Jul-20 15:58N 09°13' W 079°56'0 0.0
2018-Jul-20 15:16N 09°13' W 079°56'0 0.1
2018-Jul-20 14:52N 09°13' W 079°56'0 0.0
2018-Jul-20 14:16N 09°13' W 079°56'0 0.6
2018-Jul-20 13:59N 09°13' W 079°56'3 3.5
2018-Jul-20 13:08N 09°15' W 079°55'0 3.2
2018-Jul-20 13:00N 09°16' W 079°55'0 0.5
2018-Jul-20 12:24N 09°16' W 079°55'0 0.5
2018-Jul-20 12:00N 09°16' W 079°55'0 0.5
2018-Jul-20 11:30N 09°17' W 079°55'0 0.2
2018-Jul-20 11:00N 09°17' W 079°55'0 0.8
2018-Jul-20 10:30N 09°17' W 079°55'1 2.2
2018-Jul-20 10:00N 09°18' W 079°55'2 4.1
2018-Jul-20 09:30N 09°20' W 079°55'3 5.4
2018-Jul-20 09:00N 09°23' W 079°55'3 5.5
2018-Jul-20 08:31N 09°26' W 079°55'2 3.3
2018-Jul-20 07:59N 09°26' W 079°53'0 0.7
2018-Jul-20 07:30N 09°26' W 079°53'0 0.1
2018-Jul-20 07:00N 09°26' W 079°53'0 0.0
2018-Jul-20 06:06N 09°26' W 079°53'0 0.1
2018-Jul-20 05:57N 09°26' W 079°53'0 0.0
2018-Jul-20 05:27N 09°26' W 079°53'0 0.0
2018-Jul-20 05:00N 09°26' W 079°53'0 0.0
2018-Jul-20 04:27N 09°26' W 079°53'0 0.0
2018-Jul-20 03:57N 09°26' W 079°53'0 0.0
2018-Jul-20 03:27N 09°26' W 079°53'0 0.0
2018-Jul-20 02:48N 09°26' W 079°53'0 0.0
2018-Jul-20 02:30N 09°26' W 079°53'0 0.0
2018-Jul-20 01:45N 09°26' W 079°53'0 0.0
2018-Jul-20 01:24N 09°26' W 079°53'0 0.0
2018-Jul-20 00:51N 09°26' W 079°53'0 0.0
2018-Jul-20 00:21N 09°26' W 079°53'0 0.2
2018-Jul-19 23:18N 09°26' W 079°53'1 4.0
2018-Jul-19 23:00N 09°25' W 079°53'3 6.6
2018-Jul-19 22:31N 09°22' W 079°53'0 0.4
2018-Jul-19 22:00N 09°22' W 079°53'0 0.0
2018-Jul-19 21:30N 09°22' W 079°53'0 0.0
2018-Jul-19 21:00N 09°22' W 079°53'0 0.0
2018-Jul-19 20:30N 09°22' W 079°53'0 0.0
2018-Jul-19 20:00N 09°22' W 079°53'0 0.0
2018-Jul-19 19:30N 09°22' W 079°53'0 0.0
2018-Jul-19 19:00N 09°22' W 079°53'0 0.0
2018-Jul-19 18:30N 09°22' W 079°53'0 0.0
2018-Jul-19 18:00N 09°22' W 079°53'0 0.0
2018-Jul-19 17:30N 09°22' W 079°53'0 0.0
2018-Jul-19 17:00N 09°22' W 079°53'0 0.0
2018-Jul-19 16:30N 09°22' W 079°53'0 0.0
2018-Jul-19 16:00N 09°22' W 079°53'0 0.0
2018-Jul-19 15:30N 09°22' W 079°53'0 0.0
2018-Jul-19 15:00N 09°22' W 079°53'0 0.0
2018-Jul-19 14:30N 09°22' W 079°53'0 0.1
2018-Jul-19 13:30N 09°22' W 079°53'1 1.8
2018-Jul-19 13:00N 09°23' W 079°54'3 6.1
2018-Jul-19 12:30N 09°26' W 079°54'713.7
2018-Jul-19 12:00N 09°32' W 079°53'611.2
2018-Jul-19 11:26N 09°39' W 079°52'  
2018-Jul-15 13:29N 32°43' W 079°48'611.5
2018-Jul-15 12:58N 32°46' W 079°53'3 6.5
2018-Jul-15 12:30N 32°49' W 079°54'1 1.8
2018-Jul-15 12:01N 32°50' W 079°54'0 0.0
2018-Jul-15 11:30N 32°50' W 079°54'0 0.0
2018-Jul-15 10:57N 32°50' W 079°54'0 0.0
2018-Jul-15 10:30N 32°50' W 079°54'0 0.0
2018-Jul-15 09:57N 32°50' W 079°54'0 0.0
2018-Jul-15 09:30N 32°50' W 079°54'0 0.0
2018-Jul-15 09:00N 32°50' W 079°54'0 0.0
2018-Jul-15 08:27N 32°50' W 079°54'0 0.0
2018-Jul-15 08:00N 32°50' W 079°54'0 0.0
2018-Jul-15 07:30N 32°50' W 079°54'0 0.0
2018-Jul-15 07:00N 32°50' W 079°54'0 0.0
2018-Jul-15 06:30N 32°50' W 079°54'0 0.0
2018-Jul-15 06:00N 32°50' W 079°54'0 0.0
2018-Jul-15 05:30N 32°50' W 079°54'0 0.0
2018-Jul-15 05:00N 32°50' W 079°54'0 0.0
2018-Jul-15 04:21N 32°50' W 079°54'0 0.0
2018-Jul-15 04:00N 32°50' W 079°54'0 0.0
2018-Jul-15 01:10N 32°50' W 079°54'0 0.0
2018-Jul-15 01:00N 32°50' W 079°54'0 0.8
2018-Jul-15 00:30N 32°50' W 079°54'3 5.5
2018-Jul-15 00:00N 32°47' W 079°54'3 6.7
2018-Jul-14 23:30N 32°45' W 079°51'4 7.3
2018-Jul-14 22:54N 32°42' W 079°47'6 8.8
2018-Jul-14 22:14N 32°40' W 079°41'46 2.7
2018-Jul-14 05:06N 31°60' W 080°07'4 8.9
2018-Jul-14 04:39N 31°58' W 080°12'1 9.5
2018-Jul-14 04:30N 31°58' W 080°13'9 9.5
2018-Jul-14 03:36N 31°57' W 080°23'2 9.6
2018-Jul-14 03:23N 31°57' W 080°26'4 9.7
2018-Jul-14 03:00N 31°57' W 080°30'5 9.6
2018-Jul-14 02:30N 31°56' W 080°36'4 8.9
2018-Jul-14 02:00N 31°57' W 080°41'4 8.8
2018-Jul-14 01:30N 31°59' W 080°46'713.6
2018-Jul-14 01:00N 32°02' W 080°53'5 9.7
2018-Jul-14 00:30N 32°04' W 080°58'4 8.0
2018-Jul-14 00:00N 32°05' W 081°03'3 5.5
2018-Jul-13 23:30N 32°05' W 081°06'2 3.8
2018-Jul-13 23:00N 32°07' W 081°07'2 3.1
2018-Jul-13 22:30N 32°08' W 081°08'0 0.2
2018-Jul-13 21:58N 32°08' W 081°08'0 0.0
2018-Jul-13 21:28N 32°08' W 081°08'0 0.0
2018-Jul-13 20:58N 32°08' W 081°08'0 0.0
2018-Jul-13 20:28N 32°08' W 081°08'0 0.0
2018-Jul-13 19:58N 32°08' W 081°08'0 0.0
2018-Jul-13 19:28N 32°08' W 081°08'0 0.0
2018-Jul-13 18:52N 32°08' W 081°08'0 0.0
2018-Jul-13 18:28N 32°08' W 081°08'0 0.0
2018-Jul-13 17:58N 32°08' W 081°08'0 0.0
2018-Jul-13 17:28N 32°08' W 081°08'0 0.0
2018-Jul-13 16:52N 32°08' W 081°08'0 0.0
2018-Jul-13 16:28N 32°08' W 081°08'0 0.0
2018-Jul-13 15:58N 32°08' W 081°08'0 0.0
2018-Jul-13 15:16N 32°08' W 081°08'0 0.0
2018-Jul-13 14:52N 32°08' W 081°08'0 0.0
2018-Jul-13 13:52N 32°08' W 081°08'0 0.0
2018-Jul-13 13:28N 32°08' W 081°08'0 0.0
2018-Jul-13 12:58N 32°08' W 081°08'0 0.0
2018-Jul-13 12:28N 32°08' W 081°08'0 0.0
2018-Jul-13 11:58N 32°08' W 081°08'0 0.0
2018-Jul-13 11:28N 32°08' W 081°08'0 0.0
2018-Jul-13 10:52N 32°08' W 081°08'0 0.0
2018-Jul-13 10:28N 32°08' W 081°08'0 0.0
2018-Jul-13 09:52N 32°08' W 081°08'0 0.0
2018-Jul-13 09:28N 32°08' W 081°08'0 0.0
2018-Jul-13 08:58N 32°08' W 081°08'0 0.0
2018-Jul-13 08:28N 32°08' W 081°08'0 0.0
2018-Jul-13 07:58N 32°08' W 081°08'0 0.0
2018-Jul-13 07:28N 32°08' W 081°08'0 0.0
2018-Jul-13 06:58N 32°08' W 081°08'0 0.0
2018-Jul-13 06:28N 32°08' W 081°08'0 0.0
2018-Jul-13 05:58N 32°08' W 081°08'0 0.0
2018-Jul-13 05:28N 32°08' W 081°08'0 0.0
2018-Jul-13 04:58N 32°08' W 081°08'0 0.0
2018-Jul-13 04:28N 32°08' W 081°08'0 0.0
2018-Jul-13 03:58N 32°08' W 081°08'0 0.0
2018-Jul-13 03:28N 32°08' W 081°08'0 0.0
2018-Jul-13 02:58N 32°08' W 081°08'0 0.0
2018-Jul-13 02:28N 32°08' W 081°08'0 0.0
2018-Jul-13 01:58N 32°08' W 081°08'0 0.0
2018-Jul-13 01:28N 32°08' W 081°08'0 0.0
2018-Jul-13 00:58N 32°08' W 081°08'0 0.0
2018-Jul-13 00:28N 32°08' W 081°08'0 0.0
2018-Jul-12 23:58N 32°08' W 081°08'0 0.0
2018-Jul-12 23:28N 32°08' W 081°08'0 0.0
2018-Jul-12 22:58N 32°08' W 081°08'0 0.0
2018-Jul-12 22:22N 32°08' W 081°08'0 0.0
2018-Jul-12 21:58N 32°08' W 081°08'0 0.0
2018-Jul-12 21:28N 32°08' W 081°08'0 0.0
2018-Jul-12 20:58N 32°08' W 081°08'0 0.0
2018-Jul-12 20:28N 32°08' W 081°08'0 0.0
2018-Jul-12 19:58N 32°08' W 081°08'0 0.0
2018-Jul-12 19:28N 32°08' W 081°08'0 0.0
2018-Jul-12 18:58N 32°08' W 081°08'0 0.0
2018-Jul-12 18:28N 32°08' W 081°08'0 0.0
2018-Jul-12 17:52N 32°08' W 081°08'0 0.0
2018-Jul-12 17:28N 32°08' W 081°08'0 0.0
2018-Jul-12 16:58N 32°08' W 081°08'0 0.0
2018-Jul-12 16:28N 32°08' W 081°08'0 0.0
2018-Jul-12 15:53N 32°08' W 081°08'0 0.0
2018-Jul-12 15:29N 32°08' W 081°08'0 0.0
2018-Jul-12 14:59N 32°08' W 081°08'0 0.2
2018-Jul-12 14:30N 32°08' W 081°08'2 4.1
2018-Jul-12 14:00N 32°06' W 081°07'2 4.7
2018-Jul-12 13:30N 32°05' W 081°05'3 5.4
2018-Jul-12 13:00N 32°05' W 081°02'510.1
2018-Jul-12 12:30N 32°03' W 080°56'612.3
2018-Jul-12 12:01N 32°02' W 080°49'714.8
2018-Jul-12 11:31N 31°58' W 080°42'510.8
2018-Jul-12 11:00N 31°56' W 080°36'611.8
2018-Jul-12 10:28N 31°57' W 080°28'0 0.1
2018-Jul-12 04:30N 31°57' W 080°28'0 0.1
2018-Jul-12 03:18N 31°57' W 080°28'0 0.0
2018-Jul-12 03:00N 31°57' W 080°28'0 0.0
2018-Jul-12 02:30N 31°57' W 080°28'0 0.1
2018-Jul-12 01:12N 31°57' W 080°28'0 0.2
2018-Jul-12 01:00N 31°57' W 080°28'2 3.2
2018-Jul-12 00:30N 31°58' W 080°26'612.4
2018-Jul-12 00:00N 31°57' W 080°19'612.6
2018-Jul-11 23:30N 31°58' W 080°11'612.3
2018-Jul-11 23:00N 32°01' W 080°05'612.7
2018-Jul-11 22:30N 32°04' W 079°58'612.8
2018-Jul-11 22:00N 32°07' W 079°52'712.9
2018-Jul-11 21:30N 32°10' W 079°45'613.0
2018-Jul-11 21:00N 32°14' W 079°39'713.2
2018-Jul-11 20:30N 32°17' W 079°32'713.5
2018-Jul-11 19:59N 32°20' W 079°25'713.5
2018-Jul-11 19:28N 32°24' W 079°18'613.0
2018-Jul-11 19:00N 32°28' W 079°13'713.1
2018-Jul-11 18:30N 32°34' W 079°08'713.2
2018-Jul-11 18:00N 32°39' W 079°04'713.3
2018-Jul-11 17:30N 32°45' W 078°59'713.3
2018-Jul-11 17:00N 32°50' W 078°55'713.2
2018-Jul-11 16:30N 32°55' W 078°50'713.2
2018-Jul-11 16:00N 33°01' W 078°45'1613.3
2018-Jul-11 14:49N 33°13' W 078°34'413.3
2018-Jul-11 14:30N 33°17' W 078°32'4012.5
2018-Jul-11 11:21N 33°48' W 078°02'511.9
2018-Jul-11 10:57N 33°52' W 078°01'3 7.2
2018-Jul-11 10:30N 33°56' W 077°60'510.2
2018-Jul-11 10:00N 33°60' W 077°57'5 9.6
2018-Jul-11 09:30N 34°05' W 077°56'6 8.9
2018-Jul-11 08:48N 34°11' W 077°57'1 0.1
2018-Jul-10 23:52N 34°12' W 077°57'0 0.0
2018-Jul-10 23:28N 34°12' W 077°57'0 0.0
2018-Jul-10 22:40N 34°12' W 077°57'0 0.0
2018-Jul-10 22:28N 34°12' W 077°57'0 0.0
2018-Jul-10 20:01N 34°12' W 077°57'0 0.0
2018-Jul-10 19:58N 34°12' W 077°57'  

Dump ship's entire track history